createdAt,value
2023-05-03T00:01:09.604Z,4.20
2023-05-03T00:03:37.793Z,3.80
2023-05-03T00:06:15.802Z,5.97
2023-05-03T00:08:43.446Z,3.60
2023-05-03T00:11:10.883Z,3.55
2023-05-03T00:13:37.869Z,7.45
2023-05-03T00:16:05.121Z,3.58
2023-05-03T00:18:32.036Z,3.50
2023-05-03T00:20:59.754Z,2.10
2023-05-03T00:23:28.212Z,2.85
2023-05-03T00:25:59.235Z,5.07
2023-05-03T00:28:26.867Z,7.57
2023-05-03T00:30:53.925Z,2.55
2023-05-03T00:33:20.789Z,2.83
2023-05-03T00:35:47.650Z,3.45
2023-05-03T00:38:15.381Z,2.45
2023-05-03T00:40:42.230Z,4.90
2023-05-03T00:43:13.248Z,2.88
2023-05-03T00:45:40.759Z,2.25
2023-05-03T00:48:07.620Z,4.57
2023-05-03T00:50:36.828Z,3.55
2023-05-03T00:53:03.800Z,2.42
2023-05-03T00:55:33.882Z,4.32
2023-05-03T00:58:00.666Z,5.18
2023-05-03T01:00:27.513Z,2.80
2023-05-03T01:02:54.592Z,7.70
2023-05-03T01:05:22.895Z,3.00
2023-05-03T01:08:15.566Z,2.80
2023-05-03T01:11:11.875Z,3.28
2023-05-03T01:13:53.261Z,2.60
2023-05-03T01:16:40.848Z,3.05
2023-05-03T01:19:24.307Z,4.57
2023-05-03T01:22:11.064Z,4.45
2023-05-03T01:24:40.576Z,4.20
2023-05-03T01:27:09.257Z,5.85
2023-05-03T01:29:36.226Z,5.93
2023-05-03T01:32:07.417Z,3.72
2023-05-03T01:34:48.525Z,5.63
2023-05-03T01:37:15.817Z,2.58
2023-05-03T01:39:56.360Z,1.60
2023-05-03T01:42:25.023Z,2.22
2023-05-03T01:44:54.785Z,3.08
2023-05-03T01:47:21.552Z,5.95
2023-05-03T01:49:48.371Z,8.48
2023-05-03T01:52:15.174Z,4.45
2023-05-03T01:54:42.041Z,3.15
2023-05-03T01:57:08.854Z,2.83
2023-05-03T01:59:38.335Z,4.57
2023-05-03T02:02:05.148Z,3.17
2023-05-03T02:04:32.106Z,2.42
2023-05-03T02:06:58.892Z,4.00
2023-05-03T02:09:25.900Z,2.88
2023-05-03T02:11:52.760Z,1.45
2023-05-03T02:14:19.518Z,4.47
2023-05-03T02:16:46.669Z,4.13
2023-05-03T02:19:13.506Z,3.88
2023-05-03T02:21:40.455Z,1.98
2023-05-03T02:24:07.689Z,2.40
2023-05-03T02:26:34.536Z,6.30
2023-05-03T02:29:01.461Z,3.00
2023-05-03T02:31:28.377Z,2.47
2023-05-03T02:33:55.264Z,1.92
2023-05-03T02:36:22.098Z,5.22
2023-05-03T02:38:48.875Z,2.33
2023-05-03T02:41:15.771Z,5.03
2023-05-03T02:43:42.599Z,4.03
2023-05-03T02:46:09.508Z,2.75
2023-05-03T02:48:36.325Z,3.50
2023-05-03T02:51:03.382Z,4.45
2023-05-03T02:53:30.196Z,4.22
2023-05-03T02:55:57.269Z,4.05
2023-05-03T02:58:24.042Z,2.78
2023-05-03T03:00:51.073Z,2.47
2023-05-03T03:03:18.023Z,1.60
2023-05-03T03:05:44.869Z,2.20
2023-05-03T03:08:11.624Z,3.78
2023-05-03T03:10:38.406Z,2.92
2023-05-03T03:13:05.462Z,4.05
2023-05-03T03:15:32.207Z,7.05
2023-05-03T03:17:59.009Z,2.20
2023-05-03T03:20:25.833Z,2.85
2023-05-03T03:22:52.594Z,2.13
2023-05-03T03:25:20.689Z,4.60
2023-05-03T03:27:47.608Z,10.05
2023-05-03T03:30:14.440Z,5.72
2023-05-03T03:32:41.320Z,3.85
2023-05-03T03:35:10.298Z,2.85
2023-05-03T03:37:39.033Z,3.58
2023-05-03T03:40:07.699Z,3.95
2023-05-03T03:42:34.587Z,4.68
2023-05-03T03:45:01.373Z,5.43
2023-05-03T03:47:28.211Z,3.28
2023-05-03T03:49:57.688Z,3.50
2023-05-03T03:52:24.533Z,3.33
2023-05-03T03:54:51.955Z,5.18
2023-05-03T03:57:18.739Z,5.75
2023-05-03T03:59:45.508Z,3.58
2023-05-03T04:02:12.360Z,4.10
2023-05-03T04:04:39.336Z,5.57
2023-05-03T04:07:06.289Z,2.80
2023-05-03T04:09:33.069Z,4.35
2023-05-03T04:11:59.912Z,3.22
2023-05-03T04:14:26.767Z,6.93
2023-05-03T04:16:53.674Z,3.95
2023-05-03T04:19:22.590Z,7.10
2023-05-03T04:21:49.352Z,4.97
2023-05-03T04:24:17.388Z,4.13
2023-05-03T04:26:44.659Z,5.18
2023-05-03T04:29:12.368Z,3.75
2023-05-03T04:31:39.745Z,10.95
2023-05-03T04:34:07.587Z,3.42
2023-05-03T04:36:42.256Z,5.95
2023-05-03T04:39:11.588Z,5.57
2023-05-03T04:41:39.958Z,8.60
2023-05-03T04:44:06.887Z,23.75
2023-05-03T04:46:33.888Z,26.77
2023-05-03T04:49:00.673Z,32.95
2023-05-03T04:51:28.421Z,21.30
2023-05-03T04:53:55.233Z,21.38
2023-05-03T04:56:26.108Z,16.60
2023-05-03T04:58:53.586Z,12.95
2023-05-03T05:01:26.208Z,11.95
2023-05-03T05:03:53.697Z,11.07
2023-05-03T05:06:20.970Z,12.52
2023-05-03T05:08:47.826Z,6.70
2023-05-03T05:11:14.890Z,6.38
2023-05-03T05:13:42.011Z,7.90
2023-05-03T05:16:09.077Z,9.95
2023-05-03T05:18:36.053Z,6.80
2023-05-03T05:21:03.399Z,8.18
2023-05-03T05:23:30.290Z,5.40
2023-05-03T05:26:00.567Z,5.25
2023-05-03T05:28:28.383Z,7.15
2023-05-03T05:30:55.303Z,6.93
2023-05-03T05:33:22.751Z,4.63
2023-05-03T05:35:49.611Z,7.97
2023-05-03T05:38:17.500Z,5.65
2023-05-03T05:40:44.501Z,5.90
2023-05-03T05:43:11.594Z,3.90
2023-05-03T05:45:38.673Z,5.95
2023-05-03T05:48:06.085Z,7.30
2023-05-03T05:50:32.914Z,7.22
2023-05-03T05:52:59.770Z,4.95
2023-05-03T05:55:26.526Z,11.15
2023-05-03T05:57:53.360Z,5.47
2023-05-03T06:00:22.577Z,6.78
2023-05-03T06:02:49.541Z,9.05
2023-05-03T06:05:16.634Z,8.90
2023-05-03T06:07:43.502Z,10.32
2023-05-03T06:10:10.704Z,8.35
2023-05-03T06:12:37.550Z,7.82
2023-05-03T06:15:05.434Z,4.20
2023-05-03T06:17:32.230Z,8.48
2023-05-03T06:19:59.204Z,7.80
2023-05-03T06:22:26.310Z,4.30
2023-05-03T06:24:53.147Z,7.05
2023-05-03T06:27:19.917Z,5.40
2023-05-03T06:29:47.914Z,6.95
2023-05-03T06:32:14.677Z,5.78
2023-05-03T06:34:41.494Z,5.70
2023-05-03T06:37:08.314Z,7.13
2023-05-03T06:39:35.083Z,8.82
2023-05-03T06:42:02.616Z,7.57
2023-05-03T06:44:29.540Z,8.63
2023-05-03T06:46:56.504Z,5.18
2023-05-03T06:49:23.369Z,5.18
2023-05-03T06:51:50.115Z,3.70
2023-05-03T06:54:17.068Z,9.38
2023-05-03T06:56:43.869Z,4.55
2023-05-03T06:59:10.629Z,6.88
2023-05-03T07:01:37.481Z,5.18
2023-05-03T07:04:04.598Z,2.75
2023-05-03T07:06:40.739Z,4.70
2023-05-03T07:09:15.459Z,2.83
2023-05-03T07:11:49.226Z,2.80
2023-05-03T07:14:16.673Z,4.75
2023-05-03T07:16:43.479Z,2.67
2023-05-03T07:19:10.269Z,1.83
2023-05-03T07:21:37.069Z,6.32
2023-05-03T07:24:03.967Z,6.25
2023-05-03T07:26:30.781Z,2.85
2023-05-03T07:28:59.838Z,5.90
2023-05-03T07:31:26.865Z,3.13
2023-05-03T07:33:53.756Z,3.03
2023-05-03T07:36:20.621Z,2.65
2023-05-03T07:38:47.406Z,3.30
2023-05-03T07:41:14.200Z,3.38
2023-05-03T07:43:41.511Z,3.83
2023-05-03T07:46:08.306Z,2.50
2023-05-03T07:48:35.106Z,3.38
2023-05-03T07:51:04.674Z,5.32
2023-05-03T07:53:31.447Z,1.83
2023-05-03T07:55:59.080Z,2.00
2023-05-03T07:58:38.980Z,4.95
2023-05-03T08:01:07.064Z,3.70
2023-05-03T08:03:37.456Z,6.50
2023-05-03T08:06:04.679Z,2.38
2023-05-03T08:08:32.176Z,6.40
2023-05-03T08:10:59.022Z,2.50
2023-05-03T08:13:26.127Z,3.10
2023-05-03T08:15:55.897Z,6.15
2023-05-03T08:18:23.801Z,4.63
2023-05-03T08:20:50.815Z,4.72
2023-05-03T08:23:19.660Z,4.72
2023-05-03T08:25:46.639Z,3.45
2023-05-03T08:28:13.617Z,9.23
2023-05-03T08:30:41.457Z,5.18
2023-05-03T08:33:11.316Z,5.00
2023-05-03T08:35:38.337Z,2.72
2023-05-03T08:38:05.175Z,3.72
2023-05-03T08:40:37.096Z,2.65
2023-05-03T08:43:10.422Z,4.15
2023-05-03T08:45:37.305Z,4.70
2023-05-03T08:48:04.823Z,4.30
2023-05-03T08:50:33.096Z,11.52
2023-05-03T08:53:00.329Z,5.00
2023-05-03T08:55:27.479Z,6.70
2023-05-03T08:57:54.293Z,6.55
2023-05-03T09:00:29.486Z,2.42
2023-05-03T09:02:56.458Z,2.70
2023-05-03T09:05:23.421Z,7.78
2023-05-03T09:08:26.500Z,2.95
2023-05-03T09:10:53.233Z,2.35
2023-05-03T09:13:20.363Z,4.95
2023-05-03T09:15:54.712Z,2.80
2023-05-03T09:20:53.082Z,2.90
2023-05-03T09:23:26.221Z,3.72
2023-05-03T09:25:53.251Z,3.50
2023-05-03T09:28:21.152Z,4.85
2023-05-03T09:30:49.513Z,4.00
2023-05-03T09:33:22.095Z,10.05
2023-05-03T09:36:02.876Z,2.95
2023-05-03T09:38:36.608Z,6.28
2023-05-03T09:41:06.149Z,4.70
2023-05-03T09:43:34.877Z,5.78
2023-05-03T09:46:12.454Z,3.70
2023-05-03T09:48:40.673Z,2.53
2023-05-03T09:51:08.720Z,3.58
2023-05-03T09:53:37.302Z,2.58
2023-05-03T09:56:12.340Z,3.40
2023-05-03T09:58:40.144Z,8.10
2023-05-03T10:01:07.732Z,5.00
2023-05-03T10:03:40.219Z,8.93
2023-05-03T10:06:34.223Z,3.78
2023-05-03T10:09:25.253Z,6.03
2023-05-03T10:11:58.914Z,4.45
2023-05-03T10:14:26.539Z,4.22
2023-05-03T10:17:02.697Z,1.92
2023-05-03T10:19:41.740Z,2.85
2023-05-03T10:22:11.134Z,3.65
2023-05-03T10:25:01.697Z,3.67
2023-05-03T10:27:48.451Z,4.28
2023-05-03T10:30:37.245Z,2.55
2023-05-03T10:33:36.383Z,4.85
2023-05-03T10:36:10.363Z,3.42
2023-05-03T10:38:37.892Z,9.82
2023-05-03T10:41:06.752Z,4.78
2023-05-03T10:43:36.542Z,2.33
2023-05-03T10:46:06.489Z,4.63
2023-05-03T10:48:34.926Z,9.00
2023-05-03T10:51:30.618Z,3.92
2023-05-03T10:53:57.478Z,5.30
2023-05-03T10:56:24.449Z,8.32
2023-05-03T10:58:55.631Z,4.97
2023-05-03T11:01:24.498Z,5.47
2023-05-03T11:04:00.875Z,4.95
2023-05-03T11:06:41.068Z,3.13
2023-05-03T11:09:12.040Z,4.47
2023-05-03T11:11:40.974Z,3.97
2023-05-03T11:14:09.030Z,4.78
2023-05-03T11:16:37.765Z,1.55
2023-05-03T11:19:05.929Z,1.67
2023-05-03T11:21:33.171Z,2.28
2023-05-03T11:24:01.563Z,3.50
2023-05-03T11:26:28.416Z,5.00
2023-05-03T11:28:55.273Z,4.75
2023-05-03T11:31:22.787Z,2.25
2023-05-03T11:33:51.123Z,7.32
2023-05-03T11:36:17.969Z,4.05
2023-05-03T11:38:45.944Z,2.72
2023-05-03T11:41:19.333Z,3.70
2023-05-03T11:43:52.989Z,3.70
2023-05-03T11:46:27.890Z,5.35
2023-05-03T11:48:55.668Z,5.50
2023-05-03T11:51:27.141Z,7.57
2023-05-03T11:53:54.135Z,5.07
2023-05-03T11:56:22.726Z,3.15
2023-05-03T11:58:52.126Z,3.55
2023-05-03T12:01:22.272Z,2.75
2023-05-03T12:04:02.074Z,2.83
2023-05-03T12:06:38.972Z,3.92
2023-05-03T12:09:29.614Z,7.47
2023-05-03T12:15:36.976Z,3.15
2023-05-03T12:18:15.259Z,5.72
2023-05-03T12:24:10.086Z,3.10
2023-05-03T12:26:41.425Z,3.08
2023-05-03T12:29:11.964Z,5.15
2023-05-03T12:31:39.895Z,3.30
2023-05-03T12:34:31.490Z,7.28
2023-05-03T12:36:54.495Z,1.58
2023-05-03T12:39:22.040Z,1.88
2023-05-03T12:44:22.417Z,6.22
2023-05-03T12:46:52.926Z,2.67
2023-05-03T12:49:22.989Z,4.70
2023-05-03T12:52:06.221Z,3.60
2023-05-03T12:54:41.594Z,4.53
2023-05-03T12:57:15.624Z,1.13
2023-05-03T12:59:43.864Z,2.13
2023-05-03T13:07:17.373Z,2.55
2023-05-03T13:12:20.487Z,7.07
2023-05-03T13:14:52.787Z,3.58
2023-05-03T13:17:22.484Z,4.47
2023-05-03T13:19:53.575Z,4.15
2023-05-03T13:22:21.291Z,3.05
2023-05-03T13:24:48.766Z,2.92
2023-05-03T13:27:17.837Z,5.22
2023-05-03T13:29:46.828Z,3.75
2023-05-03T13:32:15.201Z,4.55
2023-05-03T13:34:42.006Z,3.08
2023-05-03T13:37:08.879Z,3.38
2023-05-03T13:39:35.686Z,5.15
2023-05-03T13:42:03.346Z,3.85
2023-05-03T13:44:30.151Z,4.22
2023-05-03T13:46:57.401Z,2.90
2023-05-03T13:49:25.427Z,2.28
2023-05-03T13:51:52.373Z,7.93
2023-05-03T13:54:19.385Z,2.85
2023-05-03T13:56:46.259Z,4.57
2023-05-03T13:59:14.080Z,3.08
2023-05-03T14:01:43.013Z,4.85
2023-05-03T14:04:13.054Z,3.95
2023-05-03T14:06:41.172Z,3.53
2023-05-03T14:09:09.536Z,2.55
2023-05-03T14:11:36.389Z,2.55
2023-05-03T14:14:03.578Z,2.35
2023-05-03T14:16:40.685Z,2.08
2023-05-03T14:19:11.220Z,3.25
2023-05-03T14:21:38.442Z,4.95
2023-05-03T14:24:07.297Z,4.35
2023-05-03T14:26:34.361Z,3.60
2023-05-03T14:29:01.431Z,8.05
2023-05-03T14:31:28.444Z,5.93
2023-05-03T14:33:55.350Z,3.72
2023-05-03T14:36:22.302Z,2.08
2023-05-03T14:38:49.278Z,3.20
2023-05-03T14:41:16.088Z,7.10
2023-05-03T14:43:42.892Z,4.80
2023-05-03T14:46:09.848Z,3.13
2023-05-03T14:48:37.858Z,4.45
2023-05-03T14:51:05.169Z,3.92
2023-05-03T14:53:32.181Z,3.97
2023-05-03T14:55:59.230Z,3.78
2023-05-03T14:58:26.112Z,3.75
2023-05-03T15:00:53.011Z,3.50
2023-05-03T15:03:19.839Z,3.08
2023-05-03T15:05:50.628Z,1.95
2023-05-03T15:08:19.596Z,1.80
2023-05-03T15:10:47.566Z,2.88
2023-05-03T15:13:15.860Z,1.85
2023-05-03T15:15:43.507Z,1.67
2023-05-03T15:18:11.332Z,5.18
2023-05-03T15:20:38.581Z,3.67
2023-05-03T15:23:06.089Z,3.08
2023-05-03T15:25:33.251Z,2.65
2023-05-03T15:28:03.634Z,5.60
2023-05-03T15:30:32.558Z,5.65
2023-05-03T15:32:59.533Z,2.38
2023-05-03T15:35:26.412Z,2.38
2023-05-03T15:37:53.180Z,3.45
2023-05-03T15:40:22.459Z,3.85
2023-05-03T15:42:51.637Z,2.08
2023-05-03T15:45:18.819Z,2.40
2023-05-03T15:47:46.398Z,4.25
2023-05-03T15:50:13.796Z,2.55
2023-05-03T15:52:42.211Z,7.60
2023-05-03T15:55:12.899Z,4.53
2023-05-03T15:57:39.826Z,3.72
2023-05-03T16:00:11.771Z,2.17
2023-05-03T16:02:39.995Z,4.25
2023-05-03T16:05:07.062Z,3.38
2023-05-03T16:07:36.540Z,4.82
2023-05-03T16:10:03.565Z,5.05
2023-05-03T16:12:30.623Z,3.25
2023-05-03T16:15:00.829Z,3.45
2023-05-03T16:17:28.023Z,3.65
2023-05-03T16:19:54.882Z,2.10
2023-05-03T16:22:21.806Z,4.22
2023-05-03T16:24:48.634Z,2.78
2023-05-03T16:27:15.442Z,6.45
2023-05-03T16:29:42.222Z,2.50
2023-05-03T16:32:10.818Z,3.53
2023-05-03T16:34:38.038Z,3.30
2023-05-03T16:37:05.179Z,4.50
2023-05-03T16:39:32.524Z,3.78
2023-05-03T16:41:59.359Z,3.80
2023-05-03T16:44:26.168Z,6.05
2023-05-03T16:46:53.251Z,3.53
2023-05-03T16:49:20.340Z,3.42
2023-05-03T16:51:47.234Z,3.45
2023-05-03T16:54:16.336Z,3.45
2023-05-03T16:56:44.392Z,2.97
2023-05-03T16:59:11.277Z,3.47
2023-05-03T17:01:38.279Z,3.17
2023-05-03T17:04:06.435Z,3.30
2023-05-03T17:06:33.552Z,3.03
2023-05-03T17:09:00.766Z,2.63
2023-05-03T17:11:27.616Z,2.42
2023-05-03T17:13:54.485Z,3.72
2023-05-03T17:16:22.642Z,2.65
2023-05-03T17:18:49.845Z,3.45
2023-05-03T17:21:16.733Z,3.22
2023-05-03T17:23:43.530Z,2.85
2023-05-03T17:26:12.242Z,3.75
2023-05-03T17:28:40.264Z,4.43
2023-05-03T17:31:07.553Z,2.38
2023-05-03T17:33:35.323Z,2.72
2023-05-03T17:36:04.850Z,5.05
2023-05-03T17:38:33.745Z,4.18
2023-05-03T17:41:08.795Z,1.73
2023-05-03T17:43:36.559Z,4.38
2023-05-03T17:46:12.580Z,3.38
2023-05-03T17:48:44.321Z,4.28
2023-05-03T17:51:13.824Z,1.83
2023-05-03T17:53:42.231Z,1.88
2023-05-03T17:56:16.529Z,5.25
2023-05-03T17:58:44.189Z,2.78
2023-05-03T18:01:13.061Z,1.52
2023-05-03T18:03:41.679Z,2.70
2023-05-03T18:06:11.161Z,6.28
2023-05-03T18:08:38.512Z,4.05
2023-05-03T18:11:05.592Z,3.88
2023-05-03T18:13:33.366Z,3.78
2023-05-03T18:16:00.641Z,2.28
2023-05-03T18:18:27.485Z,1.85
2023-05-03T18:21:02.248Z,3.05
2023-05-03T18:23:30.255Z,3.80
2023-05-03T18:25:57.228Z,1.50
2023-05-03T18:28:27.420Z,1.52
2023-05-03T18:30:55.990Z,3.13
2023-05-03T18:33:22.985Z,3.53
2023-05-03T18:35:53.544Z,2.03
2023-05-03T18:38:21.475Z,2.47
2023-05-03T18:40:50.348Z,2.85
2023-05-03T18:43:17.311Z,2.17
2023-05-03T18:45:44.666Z,2.33
2023-05-03T18:48:11.915Z,2.72
2023-05-03T18:50:39.166Z,7.15
2023-05-03T18:53:06.460Z,4.18
2023-05-03T18:55:33.323Z,1.60
2023-05-03T18:58:00.596Z,5.60
2023-05-03T19:00:27.793Z,2.38
2023-05-03T19:02:54.733Z,6.65
2023-05-03T19:05:21.657Z,4.57
2023-05-03T19:07:50.910Z,3.42
2023-05-03T19:10:19.771Z,6.03
2023-05-03T19:12:46.604Z,4.50
2023-05-03T19:15:13.439Z,3.88
2023-05-03T19:17:41.719Z,6.07
2023-05-03T19:20:10.158Z,4.00
2023-05-03T19:22:37.434Z,10.13
2023-05-03T19:25:05.312Z,9.93
2023-05-03T19:27:32.699Z,6.65
2023-05-03T19:30:00.427Z,7.20
2023-05-03T19:32:27.315Z,4.78
2023-05-03T19:34:54.105Z,6.53
2023-05-03T19:37:20.999Z,6.82
2023-05-03T19:39:47.790Z,7.05
2023-05-03T19:42:14.588Z,7.65
2023-05-03T19:44:41.372Z,4.82
2023-05-03T19:47:08.591Z,5.45
2023-05-03T19:49:35.457Z,11.30
2023-05-03T19:52:04.420Z,4.60
2023-05-03T19:54:33.556Z,7.53
2023-05-03T19:57:05.890Z,7.70
2023-05-03T19:59:33.474Z,11.60
2023-05-03T20:02:00.407Z,7.90
2023-05-03T20:04:27.361Z,9.05
2023-05-03T20:06:54.222Z,7.00
2023-05-03T20:09:23.702Z,4.70
2023-05-03T20:11:56.373Z,5.50
2023-05-03T20:14:23.169Z,8.80
2023-05-03T20:16:49.933Z,5.65
2023-05-03T20:19:16.696Z,7.05
2023-05-03T20:21:43.523Z,4.43
2023-05-03T20:24:11.095Z,5.82
2023-05-03T20:26:41.045Z,6.78
2023-05-03T20:29:07.962Z,10.15
2023-05-03T20:31:34.886Z,7.35
2023-05-03T20:34:01.947Z,5.13
2023-05-03T20:37:26.986Z,10.73
2023-05-03T20:40:40.062Z,9.75
2023-05-03T20:43:23.520Z,9.32
2023-05-03T20:46:43.537Z,6.30
2023-05-03T20:49:24.649Z,7.45
2023-05-03T20:52:31.686Z,5.75
2023-05-03T20:55:04.494Z,6.40
2023-05-03T20:57:33.783Z,6.53
2023-05-03T21:00:11.252Z,3.80
2023-05-03T21:02:52.651Z,7.72
2023-05-03T21:05:21.631Z,4.05
2023-05-03T21:07:48.850Z,5.43
2023-05-03T21:10:15.727Z,3.92
2023-05-03T21:13:01.280Z,6.95
2023-05-03T21:16:03.086Z,4.80
2023-05-03T21:18:44.649Z,6.25
2023-05-03T21:21:11.746Z,3.20
2023-05-03T21:23:38.673Z,4.13
2023-05-03T21:26:08.380Z,6.80
2023-05-03T21:28:47.939Z,7.00
2023-05-03T21:31:29.778Z,7.40
2023-05-03T21:34:04.934Z,7.75
2023-05-03T21:36:39.790Z,5.10
2023-05-03T21:39:26.169Z,9.50
2023-05-03T21:43:46.632Z,5.63
2023-05-03T21:46:25.219Z,5.55
2023-05-03T21:52:54.531Z,7.28
2023-05-03T22:05:29.012Z,5.05
2023-05-03T22:58:15.945Z,3.55
2023-05-03T23:16:34.363Z,7.45
2023-05-03T23:20:02.430Z,5.07
2023-05-03T23:23:13.876Z,3.63
2023-05-03T23:25:43.771Z,1.88
2023-05-03T23:28:11.239Z,4.80
2023-05-03T23:30:55.958Z,3.47
2023-05-03T23:33:37.477Z,4.68
2023-05-03T23:36:04.578Z,5.90
2023-05-03T23:38:34.446Z,2.92
2023-05-03T23:41:20.107Z,3.05
2023-05-03T23:43:55.876Z,6.05
2023-05-03T23:46:22.755Z,4.07
2023-05-03T23:49:35.217Z,4.35
2023-05-03T23:52:38.692Z,3.65
2023-05-03T23:55:32.126Z,7.45
2023-05-03T23:58:09.463Z,7.82
